sensor_id;sensor_type;location;lat;lon;timestamp;P1;durP1;ratioP1;P2;durP2;ratioP2
49614;SDS011;35517;45.272;9.984;2022-10-16T00:00:29;120.88;;;69.63;;
49614;SDS011;35517;45.272;9.984;2022-10-16T00:02:55;116.45;;;67.90;;
49614;SDS011;35517;45.272;9.984;2022-10-16T00:05:22;122.60;;;68.07;;
49614;SDS011;35517;45.272;9.984;2022-10-16T00:07:48;117.35;;;67.93;;
49614;SDS011;35517;45.272;9.984;2022-10-16T00:10:15;110.38;;;67.88;;
49614;SDS011;35517;45.272;9.984;2022-10-16T00:12:41;127.60;;;71.28;;
49614;SDS011;35517;45.272;9.984;2022-10-16T00:15:08;122.65;;;66.85;;
49614;SDS011;35517;45.272;9.984;2022-10-16T00:17:35;116.35;;;66.57;;
49614;SDS011;35517;45.272;9.984;2022-10-16T00:20:01;118.95;;;68.07;;
49614;SDS011;35517;45.272;9.984;2022-10-16T00:22:28;107.50;;;67.05;;
49614;SDS011;35517;45.272;9.984;2022-10-16T00:24:55;116.03;;;68.85;;
49614;SDS011;35517;45.272;9.984;2022-10-16T00:27:21;114.93;;;69.53;;
49614;SDS011;35517;45.272;9.984;2022-10-16T00:29:51;122.32;;;69.35;;
49614;SDS011;35517;45.272;9.984;2022-10-16T00:32:19;112.85;;;62.88;;
49614;SDS011;35517;45.272;9.984;2022-10-16T00:34:46;105.50;;;62.53;;
49614;SDS011;35517;45.272;9.984;2022-10-16T00:37:13;112.50;;;63.35;;
49614;SDS011;35517;45.272;9.984;2022-10-16T00:39:39;106.50;;;62.60;;
49614;SDS011;35517;45.272;9.984;2022-10-16T00:42:06;113.68;;;65.85;;
49614;SDS011;35517;45.272;9.984;2022-10-16T00:44:43;104.82;;;68.15;;
49614;SDS011;35517;45.272;9.984;2022-10-16T00:47:10;107.82;;;65.50;;
49614;SDS011;35517;45.272;9.984;2022-10-16T00:49:39;117.00;;;69.10;;
49614;SDS011;35517;45.272;9.984;2022-10-16T00:52:05;112.72;;;67.65;;
49614;SDS011;35517;45.272;9.984;2022-10-16T00:54:32;117.18;;;67.63;;
49614;SDS011;35517;45.272;9.984;2022-10-16T00:57:00;121.10;;;63.45;;
49614;SDS011;35517;45.272;9.984;2022-10-16T00:59:28;112.13;;;66.65;;
49614;SDS011;35517;45.272;9.984;2022-10-16T01:01:55;108.50;;;62.40;;
49614;SDS011;35517;45.272;9.984;2022-10-16T01:04:23;111.53;;;65.70;;
49614;SDS011;35517;45.272;9.984;2022-10-16T01:09:24;110.38;;;64.95;;
49614;SDS011;35517;45.272;9.984;2022-10-16T01:14:48;110.30;;;65.95;;
49614;SDS011;35517;45.272;9.984;2022-10-16T01:17:19;107.30;;;64.20;;
49614;SDS011;35517;45.272;9.984;2022-10-16T01:19:51;105.45;;;63.40;;
49614;SDS011;35517;45.272;9.984;2022-10-16T01:22:24;114.07;;;65.35;;
49614;SDS011;35517;45.272;9.984;2022-10-16T01:24:52;110.57;;;65.47;;
49614;SDS011;35517;45.272;9.984;2022-10-16T01:27:22;113.93;;;65.97;;
49614;SDS011;35517;45.272;9.984;2022-10-16T01:29:52;113.70;;;66.93;;
49614;SDS011;35517;45.272;9.984;2022-10-16T01:35:09;110.95;;;66.40;;
49614;SDS011;35517;45.272;9.984;2022-10-16T01:37:38;121.43;;;67.63;;
49614;SDS011;35517;45.272;9.984;2022-10-16T01:40:07;107.35;;;62.28;;
49614;SDS011;35517;45.272;9.984;2022-10-16T01:42:36;108.13;;;65.07;;
49614;SDS011;35517;45.272;9.984;2022-10-16T01:45:04;102.22;;;64.13;;
49614;SDS011;35517;45.272;9.984;2022-10-16T01:47:33;108.70;;;67.65;;
49614;SDS011;35517;45.272;9.984;2022-10-16T01:50:02;119.55;;;64.10;;
49614;SDS011;35517;45.272;9.984;2022-10-16T01:52:30;106.32;;;64.93;;
49614;SDS011;35517;45.272;9.984;2022-10-16T01:54:58;114.20;;;64.85;;
49614;SDS011;35517;45.272;9.984;2022-10-16T01:57:26;124.35;;;69.25;;
49614;SDS011;35517;45.272;9.984;2022-10-16T01:59:54;112.28;;;62.90;;
49614;SDS011;35517;45.272;9.984;2022-10-16T02:02:22;114.82;;;66.75;;
49614;SDS011;35517;45.272;9.984;2022-10-16T02:04:50;115.10;;;66.35;;
49614;SDS011;35517;45.272;9.984;2022-10-16T02:07:18;108.72;;;63.50;;
49614;SDS011;35517;45.272;9.984;2022-10-16T02:09:44;114.38;;;67.32;;
49614;SDS011;35517;45.272;9.984;2022-10-16T02:12:25;105.25;;;65.47;;
49614;SDS011;35517;45.272;9.984;2022-10-16T02:14:52;119.03;;;66.53;;
49614;SDS011;35517;45.272;9.984;2022-10-16T02:17:20;115.38;;;67.18;;
49614;SDS011;35517;45.272;9.984;2022-10-16T02:19:47;113.28;;;68.00;;
49614;SDS011;35517;45.272;9.984;2022-10-16T02:27:22;111.65;;;67.45;;
49614;SDS011;35517;45.272;9.984;2022-10-16T02:29:52;107.38;;;64.97;;
49614;SDS011;35517;45.272;9.984;2022-10-16T02:32:24;105.80;;;63.67;;
49614;SDS011;35517;45.272;9.984;2022-10-16T02:34:52;118.20;;;69.68;;
49614;SDS011;35517;45.272;9.984;2022-10-16T02:37:19;123.40;;;68.25;;
49614;SDS011;35517;45.272;9.984;2022-10-16T02:39:46;122.38;;;68.03;;
49614;SDS011;35517;45.272;9.984;2022-10-16T02:42:13;116.90;;;66.60;;
49614;SDS011;35517;45.272;9.984;2022-10-16T02:44:40;104.18;;;64.57;;
49614;SDS011;35517;45.272;9.984;2022-10-16T02:47:07;111.82;;;65.72;;
49614;SDS011;35517;45.272;9.984;2022-10-16T02:49:33;112.00;;;67.50;;
49614;SDS011;35517;45.272;9.984;2022-10-16T02:52:00;111.53;;;65.30;;
49614;SDS011;35517;45.272;9.984;2022-10-16T02:54:26;114.55;;;67.55;;
49614;SDS011;35517;45.272;9.984;2022-10-16T02:56:53;115.05;;;66.40;;
49614;SDS011;35517;45.272;9.984;2022-10-16T02:59:19;113.78;;;65.88;;
49614;SDS011;35517;45.272;9.984;2022-10-16T03:01:46;114.45;;;67.10;;
49614;SDS011;35517;45.272;9.984;2022-10-16T03:04:13;133.10;;;66.82;;
49614;SDS011;35517;45.272;9.984;2022-10-16T03:06:39;132.50;;;69.05;;
49614;SDS011;35517;45.272;9.984;2022-10-16T03:09:06;116.65;;;68.60;;
49614;SDS011;35517;45.272;9.984;2022-10-16T03:11:33;111.93;;;66.60;;
49614;SDS011;35517;45.272;9.984;2022-10-16T03:14:00;111.38;;;65.63;;
49614;SDS011;35517;45.272;9.984;2022-10-16T03:16:26;123.72;;;72.78;;
49614;SDS011;35517;45.272;9.984;2022-10-16T03:18:53;108.80;;;63.38;;
49614;SDS011;35517;45.272;9.984;2022-10-16T03:21:19;103.47;;;63.63;;
49614;SDS011;35517;45.272;9.984;2022-10-16T03:23:46;104.07;;;62.47;;
49614;SDS011;35517;45.272;9.984;2022-10-16T03:26:12;113.78;;;68.07;;
49614;SDS011;35517;45.272;9.984;2022-10-16T03:28:39;110.80;;;65.03;;
49614;SDS011;35517;45.272;9.984;2022-10-16T03:31:06;119.70;;;69.60;;
49614;SDS011;35517;45.272;9.984;2022-10-16T03:33:33;116.53;;;65.70;;
49614;SDS011;35517;45.272;9.984;2022-10-16T03:36:00;124.28;;;66.70;;
49614;SDS011;35517;45.272;9.984;2022-10-16T03:38:27;128.30;;;70.65;;
49614;SDS011;35517;45.272;9.984;2022-10-16T03:40:54;113.22;;;69.13;;
49614;SDS011;35517;45.272;9.984;2022-10-16T03:43:22;121.63;;;66.07;;
49614;SDS011;35517;45.272;9.984;2022-10-16T03:45:50;119.70;;;64.15;;
49614;SDS011;35517;45.272;9.984;2022-10-16T03:48:17;114.43;;;64.93;;
49614;SDS011;35517;45.272;9.984;2022-10-16T03:50:44;115.97;;;67.10;;
49614;SDS011;35517;45.272;9.984;2022-10-16T03:53:11;116.60;;;67.93;;
49614;SDS011;35517;45.272;9.984;2022-10-16T03:55:38;115.30;;;67.15;;
49614;SDS011;35517;45.272;9.984;2022-10-16T03:58:07;116.53;;;68.10;;
49614;SDS011;35517;45.272;9.984;2022-10-16T04:00:33;113.28;;;66.43;;
49614;SDS011;35517;45.272;9.984;2022-10-16T04:03:00;112.78;;;67.03;;
49614;SDS011;35517;45.272;9.984;2022-10-16T04:05:27;124.43;;;68.65;;
49614;SDS011;35517;45.272;9.984;2022-10-16T04:07:53;117.25;;;67.82;;
49614;SDS011;35517;45.272;9.984;2022-10-16T04:10:20;108.55;;;65.60;;
49614;SDS011;35517;45.272;9.984;2022-10-16T04:12:47;122.10;;;67.00;;
49614;SDS011;35517;45.272;9.984;2022-10-16T04:15:13;116.57;;;67.28;;
49614;SDS011;35517;45.272;9.984;2022-10-16T04:17:40;115.90;;;67.38;;
49614;SDS011;35517;45.272;9.984;2022-10-16T04:20:07;112.80;;;65.82;;
49614;SDS011;35517;45.272;9.984;2022-10-16T04:22:33;120.20;;;69.97;;
49614;SDS011;35517;45.272;9.984;2022-10-16T04:25:00;117.07;;;65.85;;
49614;SDS011;35517;45.272;9.984;2022-10-16T04:27:26;113.65;;;66.15;;
49614;SDS011;35517;45.272;9.984;2022-10-16T04:29:53;114.55;;;66.47;;
49614;SDS011;35517;45.272;9.984;2022-10-16T04:32:20;112.78;;;65.50;;
49614;SDS011;35517;45.272;9.984;2022-10-16T04:34:47;117.05;;;66.20;;
49614;SDS011;35517;45.272;9.984;2022-10-16T04:37:13;120.38;;;68.13;;
49614;SDS011;35517;45.272;9.984;2022-10-16T04:39:40;107.97;;;62.58;;
49614;SDS011;35517;45.272;9.984;2022-10-16T04:42:06;114.93;;;69.53;;
49614;SDS011;35517;45.272;9.984;2022-10-16T04:44:34;109.38;;;63.13;;
49614;SDS011;35517;45.272;9.984;2022-10-16T04:47:00;117.50;;;69.72;;
49614;SDS011;35517;45.272;9.984;2022-10-16T04:49:27;108.05;;;66.85;;
49614;SDS011;35517;45.272;9.984;2022-10-16T04:51:53;106.53;;;66.25;;
49614;SDS011;35517;45.272;9.984;2022-10-16T04:54:20;116.72;;;66.63;;
49614;SDS011;35517;45.272;9.984;2022-10-16T04:56:47;114.75;;;64.70;;
49614;SDS011;35517;45.272;9.984;2022-10-16T04:59:15;109.75;;;65.57;;
49614;SDS011;35517;45.272;9.984;2022-10-16T05:01:42;118.65;;;66.93;;
49614;SDS011;35517;45.272;9.984;2022-10-16T05:04:09;121.05;;;66.85;;
49614;SDS011;35517;45.272;9.984;2022-10-16T05:06:36;122.90;;;69.63;;
49614;SDS011;35517;45.272;9.984;2022-10-16T05:09:04;125.22;;;68.80;;
49614;SDS011;35517;45.272;9.984;2022-10-16T05:11:31;114.25;;;67.57;;
49614;SDS011;35517;45.272;9.984;2022-10-16T05:13:58;113.22;;;65.78;;
49614;SDS011;35517;45.272;9.984;2022-10-16T05:16:25;115.70;;;66.68;;
49614;SDS011;35517;45.272;9.984;2022-10-16T05:18:51;108.90;;;64.82;;
49614;SDS011;35517;45.272;9.984;2022-10-16T05:21:19;117.63;;;65.88;;
49614;SDS011;35517;45.272;9.984;2022-10-16T05:23:45;118.72;;;69.43;;
49614;SDS011;35517;45.272;9.984;2022-10-16T05:26:12;118.40;;;64.72;;
49614;SDS011;35517;45.272;9.984;2022-10-16T05:28:38;116.93;;;67.90;;
49614;SDS011;35517;45.272;9.984;2022-10-16T05:31:05;112.65;;;65.22;;
49614;SDS011;35517;45.272;9.984;2022-10-16T05:33:32;113.68;;;70.63;;
49614;SDS011;35517;45.272;9.984;2022-10-16T05:36:05;111.75;;;66.00;;
49614;SDS011;35517;45.272;9.984;2022-10-16T05:38:36;110.82;;;65.22;;
49614;SDS011;35517;45.272;9.984;2022-10-16T05:41:03;112.45;;;64.10;;
49614;SDS011;35517;45.272;9.984;2022-10-16T05:43:30;112.18;;;64.28;;
49614;SDS011;35517;45.272;9.984;2022-10-16T05:45:58;119.45;;;67.78;;
49614;SDS011;35517;45.272;9.984;2022-10-16T05:48:25;106.88;;;64.80;;
49614;SDS011;35517;45.272;9.984;2022-10-16T05:51:02;112.70;;;67.70;;
49614;SDS011;35517;45.272;9.984;2022-10-16T05:53:29;112.32;;;63.60;;
49614;SDS011;35517;45.272;9.984;2022-10-16T05:55:57;120.88;;;67.47;;
49614;SDS011;35517;45.272;9.984;2022-10-16T05:58:24;116.78;;;64.70;;
49614;SDS011;35517;45.272;9.984;2022-10-16T06:00:58;112.40;;;67.35;;
49614;SDS011;35517;45.272;9.984;2022-10-16T06:03:25;110.68;;;64.72;;
49614;SDS011;35517;45.272;9.984;2022-10-16T06:05:51;124.18;;;65.05;;
49614;SDS011;35517;45.272;9.984;2022-10-16T06:08:18;122.55;;;64.10;;
49614;SDS011;35517;45.272;9.984;2022-10-16T06:10:46;114.32;;;66.32;;
49614;SDS011;35517;45.272;9.984;2022-10-16T06:13:13;115.88;;;66.95;;
49614;SDS011;35517;45.272;9.984;2022-10-16T06:15:40;110.95;;;66.90;;
49614;SDS011;35517;45.272;9.984;2022-10-16T06:18:10;113.65;;;68.00;;
49614;SDS011;35517;45.272;9.984;2022-10-16T06:20:37;129.18;;;70.20;;
49614;SDS011;35517;45.272;9.984;2022-10-16T06:23:04;120.32;;;69.78;;
49614;SDS011;35517;45.272;9.984;2022-10-16T06:25:31;114.75;;;67.97;;
49614;SDS011;35517;45.272;9.984;2022-10-16T06:27:57;114.50;;;68.85;;
49614;SDS011;35517;45.272;9.984;2022-10-16T06:30:24;107.07;;;62.95;;
49614;SDS011;35517;45.272;9.984;2022-10-16T06:32:51;111.65;;;66.50;;
49614;SDS011;35517;45.272;9.984;2022-10-16T06:35:17;110.78;;;65.55;;
49614;SDS011;35517;45.272;9.984;2022-10-16T06:37:44;107.70;;;65.30;;
49614;SDS011;35517;45.272;9.984;2022-10-16T06:40:10;111.45;;;66.50;;
49614;SDS011;35517;45.272;9.984;2022-10-16T06:42:40;115.05;;;66.82;;
49614;SDS011;35517;45.272;9.984;2022-10-16T06:45:06;109.50;;;62.55;;
49614;SDS011;35517;45.272;9.984;2022-10-16T06:47:33;110.65;;;64.45;;
49614;SDS011;35517;45.272;9.984;2022-10-16T06:49:59;119.50;;;66.00;;
49614;SDS011;35517;45.272;9.984;2022-10-16T06:52:29;113.25;;;66.05;;
49614;SDS011;35517;45.272;9.984;2022-10-16T06:54:55;103.10;;;63.90;;
49614;SDS011;35517;45.272;9.984;2022-10-16T06:57:22;112.97;;;66.63;;
49614;SDS011;35517;45.272;9.984;2022-10-16T06:59:49;114.68;;;66.88;;
49614;SDS011;35517;45.272;9.984;2022-10-16T07:02:15;110.68;;;64.35;;
49614;SDS011;35517;45.272;9.984;2022-10-16T07:04:42;123.03;;;65.82;;
49614;SDS011;35517;45.272;9.984;2022-10-16T07:07:09;112.53;;;66.53;;
49614;SDS011;35517;45.272;9.984;2022-10-16T07:09:35;118.40;;;63.78;;
49614;SDS011;35517;45.272;9.984;2022-10-16T07:12:02;107.70;;;63.72;;
49614;SDS011;35517;45.272;9.984;2022-10-16T07:14:29;110.15;;;64.32;;
49614;SDS011;35517;45.272;9.984;2022-10-16T07:16:55;115.20;;;65.55;;
49614;SDS011;35517;45.272;9.984;2022-10-16T07:19:22;107.38;;;64.22;;
49614;SDS011;35517;45.272;9.984;2022-10-16T07:21:48;110.85;;;60.97;;
49614;SDS011;35517;45.272;9.984;2022-10-16T07:24:16;98.43;;;63.17;;
49614;SDS011;35517;45.272;9.984;2022-10-16T07:26:43;106.32;;;60.25;;
49614;SDS011;35517;45.272;9.984;2022-10-16T07:29:15;99.40;;;57.65;;
49614;SDS011;35517;45.272;9.984;2022-10-16T07:31:42;96.50;;;61.05;;
49614;SDS011;35517;45.272;9.984;2022-10-16T07:34:10;96.57;;;59.00;;
49614;SDS011;35517;45.272;9.984;2022-10-16T07:36:37;99.38;;;58.85;;
49614;SDS011;35517;45.272;9.984;2022-10-16T07:39:04;98.10;;;58.70;;
49614;SDS011;35517;45.272;9.984;2022-10-16T07:41:30;108.72;;;61.17;;
49614;SDS011;35517;45.272;9.984;2022-10-16T07:43:58;101.72;;;58.30;;
49614;SDS011;35517;45.272;9.984;2022-10-16T07:46:26;95.85;;;56.10;;
49614;SDS011;35517;45.272;9.984;2022-10-16T07:48:53;102.47;;;54.33;;
49614;SDS011;35517;45.272;9.984;2022-10-16T07:51:21;89.57;;;52.78;;
49614;SDS011;35517;45.272;9.984;2022-10-16T07:53:48;85.97;;;55.53;;
49614;SDS011;35517;45.272;9.984;2022-10-16T07:56:15;92.00;;;56.03;;
49614;SDS011;35517;45.272;9.984;2022-10-16T07:58:42;90.32;;;53.45;;
49614;SDS011;35517;45.272;9.984;2022-10-16T08:01:10;83.63;;;53.03;;
49614;SDS011;35517;45.272;9.984;2022-10-16T08:03:37;79.75;;;48.17;;
49614;SDS011;35517;45.272;9.984;2022-10-16T08:06:04;90.97;;;50.53;;
49614;SDS011;35517;45.272;9.984;2022-10-16T08:08:31;82.00;;;46.83;;
49614;SDS011;35517;45.272;9.984;2022-10-16T08:10:57;71.60;;;44.40;;
49614;SDS011;35517;45.272;9.984;2022-10-16T08:13:24;71.60;;;47.53;;
49614;SDS011;35517;45.272;9.984;2022-10-16T08:15:53;70.28;;;46.38;;
49614;SDS011;35517;45.272;9.984;2022-10-16T08:18:20;73.35;;;45.45;;
49614;SDS011;35517;45.272;9.984;2022-10-16T08:20:46;65.45;;;43.15;;
49614;SDS011;35517;45.272;9.984;2022-10-16T08:23:13;71.38;;;44.83;;
49614;SDS011;35517;45.272;9.984;2022-10-16T08:25:40;66.90;;;43.38;;
49614;SDS011;35517;45.272;9.984;2022-10-16T08:28:09;74.45;;;46.25;;
49614;SDS011;35517;45.272;9.984;2022-10-16T08:30:36;67.18;;;45.33;;
49614;SDS011;35517;45.272;9.984;2022-10-16T08:33:03;76.68;;;46.92;;
49614;SDS011;35517;45.272;9.984;2022-10-16T08:35:32;80.35;;;49.80;;
49614;SDS011;35517;45.272;9.984;2022-10-16T08:37:58;76.57;;;48.42;;
49614;SDS011;35517;45.272;9.984;2022-10-16T08:40:28;71.50;;;46.53;;
49614;SDS011;35517;45.272;9.984;2022-10-16T08:50:37;74.50;;;50.95;;
49614;SDS011;35517;45.272;9.984;2022-10-16T08:53:05;69.38;;;45.33;;
49614;SDS011;35517;45.272;9.984;2022-10-16T08:58:12;78.13;;;48.38;;
49614;SDS011;35517;45.272;9.984;2022-10-16T09:00:39;69.10;;;46.17;;
49614;SDS011;35517;45.272;9.984;2022-10-16T09:03:10;76.00;;;48.13;;
49614;SDS011;35517;45.272;9.984;2022-10-16T09:08:30;73.53;;;48.10;;
49614;SDS011;35517;45.272;9.984;2022-10-16T09:11:03;74.53;;;47.15;;
49614;SDS011;35517;45.272;9.984;2022-10-16T09:16:18;62.63;;;43.40;;
49614;SDS011;35517;45.272;9.984;2022-10-16T09:21:41;67.63;;;43.20;;
49614;SDS011;35517;45.272;9.984;2022-10-16T09:24:13;62.60;;;42.22;;
49614;SDS011;35517;45.272;9.984;2022-10-16T09:26:40;62.28;;;42.67;;
49614;SDS011;35517;45.272;9.984;2022-10-16T09:29:08;59.63;;;41.60;;
49614;SDS011;35517;45.272;9.984;2022-10-16T09:31:36;64.22;;;42.08;;
49614;SDS011;35517;45.272;9.984;2022-10-16T09:34:03;63.92;;;42.33;;
49614;SDS011;35517;45.272;9.984;2022-10-16T09:36:36;61.88;;;42.60;;
49614;SDS011;35517;45.272;9.984;2022-10-16T09:39:07;65.47;;;42.70;;
49614;SDS011;35517;45.272;9.984;2022-10-16T09:41:34;56.95;;;40.53;;
49614;SDS011;35517;45.272;9.984;2022-10-16T09:44:02;53.92;;;40.03;;
49614;SDS011;35517;45.272;9.984;2022-10-16T09:46:33;62.10;;;39.65;;
49614;SDS011;35517;45.272;9.984;2022-10-16T09:49:01;57.30;;;37.35;;
49614;SDS011;35517;45.272;9.984;2022-10-16T09:51:30;58.28;;;39.30;;
49614;SDS011;35517;45.272;9.984;2022-10-16T09:54:01;54.58;;;39.47;;
49614;SDS011;35517;45.272;9.984;2022-10-16T09:56:31;51.88;;;39.78;;
49614;SDS011;35517;45.272;9.984;2022-10-16T09:59:18;53.80;;;38.85;;
49614;SDS011;35517;45.272;9.984;2022-10-16T10:01:49;51.22;;;39.42;;
49614;SDS011;35517;45.272;9.984;2022-10-16T10:04:16;54.63;;;40.17;;
49614;SDS011;35517;45.272;9.984;2022-10-16T10:06:47;56.88;;;40.17;;
49614;SDS011;35517;45.272;9.984;2022-10-16T10:09:34;61.40;;;40.00;;
49614;SDS011;35517;45.272;9.984;2022-10-16T10:12:04;57.13;;;39.92;;
49614;SDS011;35517;45.272;9.984;2022-10-16T10:17:20;52.58;;;37.17;;
49614;SDS011;35517;45.272;9.984;2022-10-16T10:19:52;57.67;;;40.58;;
49614;SDS011;35517;45.272;9.984;2022-10-16T10:27:47;56.78;;;38.72;;
49614;SDS011;35517;45.272;9.984;2022-10-16T10:30:18;61.42;;;38.20;;
49614;SDS011;35517;45.272;9.984;2022-10-16T10:32:54;51.58;;;39.22;;
49614;SDS011;35517;45.272;9.984;2022-10-16T10:38:00;53.20;;;38.90;;
49614;SDS011;35517;45.272;9.984;2022-10-16T10:43:03;51.20;;;37.88;;
49614;SDS011;35517;45.272;9.984;2022-10-16T10:45:38;57.55;;;38.90;;
49614;SDS011;35517;45.272;9.984;2022-10-16T10:53:21;55.58;;;40.47;;
49614;SDS011;35517;45.272;9.984;2022-10-16T10:55:56;56.40;;;38.22;;
49614;SDS011;35517;45.272;9.984;2022-10-16T11:06:22;55.78;;;39.22;;
49614;SDS011;35517;45.272;9.984;2022-10-16T11:08:51;55.70;;;40.70;;
49614;SDS011;35517;45.272;9.984;2022-10-16T11:11:33;56.10;;;36.80;;
49614;SDS011;35517;45.272;9.984;2022-10-16T11:17:04;59.30;;;38.50;;
49614;SDS011;35517;45.272;9.984;2022-10-16T11:22:17;52.05;;;38.63;;
49614;SDS011;35517;45.272;9.984;2022-10-16T11:27:27;56.83;;;40.45;;
49614;SDS011;35517;45.272;9.984;2022-10-16T11:30:02;56.28;;;38.00;;
49614;SDS011;35517;45.272;9.984;2022-10-16T11:32:30;54.20;;;38.10;;
49614;SDS011;35517;45.272;9.984;2022-10-16T11:35:06;52.53;;;38.50;;
49614;SDS011;35517;45.272;9.984;2022-10-16T11:37:38;60.92;;;37.78;;
49614;SDS011;35517;45.272;9.984;2022-10-16T11:42:46;57.08;;;37.33;;
49614;SDS011;35517;45.272;9.984;2022-10-16T11:47:45;64.93;;;36.30;;
49614;SDS011;35517;45.272;9.984;2022-10-16T11:55:32;58.72;;;37.50;;
49614;SDS011;35517;45.272;9.984;2022-10-16T12:00:29;57.85;;;36.28;;
49614;SDS011;35517;45.272;9.984;2022-10-16T12:03:05;52.13;;;36.95;;
49614;SDS011;35517;45.272;9.984;2022-10-16T12:10:34;52.47;;;38.03;;
49614;SDS011;35517;45.272;9.984;2022-10-16T12:13:03;57.55;;;36.72;;
49614;SDS011;35517;45.272;9.984;2022-10-16T12:15:31;54.78;;;37.42;;
49614;SDS011;35517;45.272;9.984;2022-10-16T12:17:58;48.10;;;35.00;;
49614;SDS011;35517;45.272;9.984;2022-10-16T12:20:29;50.35;;;33.58;;
49614;SDS011;35517;45.272;9.984;2022-10-16T12:25:30;49.40;;;33.92;;
49614;SDS011;35517;45.272;9.984;2022-10-16T12:30:24;49.75;;;34.40;;
49614;SDS011;35517;45.272;9.984;2022-10-16T12:32:52;47.65;;;33.88;;
49614;SDS011;35517;45.272;9.984;2022-10-16T12:35:24;46.45;;;29.80;;
49614;SDS011;35517;45.272;9.984;2022-10-16T12:37:51;44.47;;;31.92;;
49614;SDS011;35517;45.272;9.984;2022-10-16T12:42:51;46.92;;;33.17;;
49614;SDS011;35517;45.272;9.984;2022-10-16T12:47:51;42.92;;;27.55;;
49614;SDS011;35517;45.272;9.984;2022-10-16T12:50:27;40.30;;;26.65;;
49614;SDS011;35517;45.272;9.984;2022-10-16T12:52:54;36.22;;;24.38;;
49614;SDS011;35517;45.272;9.984;2022-10-16T12:55:21;33.90;;;22.77;;
49614;SDS011;35517;45.272;9.984;2022-10-16T12:58:24;31.75;;;22.83;;
49614;SDS011;35517;45.272;9.984;2022-10-16T13:00:45;28.80;;;19.30;;
49614;SDS011;35517;45.272;9.984;2022-10-16T13:03:29;30.30;;;21.83;;
49614;SDS011;35517;45.272;9.984;2022-10-16T13:18:55;29.35;;;16.35;;
49614;SDS011;35517;45.272;9.984;2022-10-16T13:24:00;20.95;;;14.80;;
49614;SDS011;35517;45.272;9.984;2022-10-16T13:26:43;19.38;;;14.98;;
49614;SDS011;35517;45.272;9.984;2022-10-16T13:29:11;24.40;;;14.40;;
49614;SDS011;35517;45.272;9.984;2022-10-16T13:31:39;21.25;;;14.15;;
49614;SDS011;35517;45.272;9.984;2022-10-16T13:34:06;22.67;;;14.65;;
49614;SDS011;35517;45.272;9.984;2022-10-16T13:36:45;23.63;;;14.30;;
49614;SDS011;35517;45.272;9.984;2022-10-16T13:39:13;19.25;;;13.73;;
49614;SDS011;35517;45.272;9.984;2022-10-16T13:41:40;22.70;;;14.35;;
49614;SDS011;35517;45.272;9.984;2022-10-16T13:44:11;21.67;;;13.98;;
49614;SDS011;35517;45.272;9.984;2022-10-16T13:46:39;22.52;;;15.13;;
49614;SDS011;35517;45.272;9.984;2022-10-16T13:49:11;21.60;;;14.32;;
49614;SDS011;35517;45.272;9.984;2022-10-16T13:51:38;18.27;;;13.45;;
49614;SDS011;35517;45.272;9.984;2022-10-16T13:54:04;24.33;;;13.60;;
49614;SDS011;35517;45.272;9.984;2022-10-16T13:56:32;17.38;;;13.13;;
49614;SDS011;35517;45.272;9.984;2022-10-16T13:59:03;20.40;;;12.90;;
49614;SDS011;35517;45.272;9.984;2022-10-16T14:02:05;18.98;;;12.10;;
49614;SDS011;35517;45.272;9.984;2022-10-16T14:06:49;22.65;;;14.10;;
49614;SDS011;35517;45.272;9.984;2022-10-16T14:11:54;27.25;;;16.27;;
49614;SDS011;35517;45.272;9.984;2022-10-16T14:14:22;25.02;;;16.30;;
49614;SDS011;35517;45.272;9.984;2022-10-16T14:16:49;19.42;;;15.13;;
49614;SDS011;35517;45.272;9.984;2022-10-16T14:21:42;22.17;;;13.73;;
49614;SDS011;35517;45.272;9.984;2022-10-16T14:24:12;17.42;;;13.65;;
49614;SDS011;35517;45.272;9.984;2022-10-16T14:26:43;24.52;;;14.45;;
49614;SDS011;35517;45.272;9.984;2022-10-16T14:29:14;22.70;;;13.52;;
49614;SDS011;35517;45.272;9.984;2022-10-16T14:31:41;24.90;;;14.90;;
49614;SDS011;35517;45.272;9.984;2022-10-16T14:34:24;18.85;;;14.23;;
49614;SDS011;35517;45.272;9.984;2022-10-16T14:36:53;22.98;;;14.82;;
49614;SDS011;35517;45.272;9.984;2022-10-16T14:39:20;22.77;;;13.43;;
49614;SDS011;35517;45.272;9.984;2022-10-16T14:41:49;19.65;;;14.40;;
49614;SDS011;35517;45.272;9.984;2022-10-16T14:44:17;20.23;;;14.23;;
49614;SDS011;35517;45.272;9.984;2022-10-16T14:46:44;24.88;;;15.77;;
49614;SDS011;35517;45.272;9.984;2022-10-16T14:51:47;24.27;;;17.15;;
49614;SDS011;35517;45.272;9.984;2022-10-16T14:54:15;20.45;;;14.32;;
49614;SDS011;35517;45.272;9.984;2022-10-16T14:59:16;29.95;;;17.38;;
49614;SDS011;35517;45.272;9.984;2022-10-16T15:01:44;25.05;;;16.88;;
49614;SDS011;35517;45.272;9.984;2022-10-16T15:04:11;23.63;;;15.23;;
49614;SDS011;35517;45.272;9.984;2022-10-16T15:06:39;26.02;;;15.60;;
49614;SDS011;35517;45.272;9.984;2022-10-16T15:09:06;21.73;;;15.45;;
49614;SDS011;35517;45.272;9.984;2022-10-16T15:11:33;30.15;;;19.85;;
49614;SDS011;35517;45.272;9.984;2022-10-16T15:13:59;25.55;;;16.13;;
49614;SDS011;35517;45.272;9.984;2022-10-16T15:16:26;23.52;;;15.50;;
49614;SDS011;35517;45.272;9.984;2022-10-16T15:18:53;23.20;;;15.38;;
49614;SDS011;35517;45.272;9.984;2022-10-16T15:21:28;21.98;;;16.17;;
49614;SDS011;35517;45.272;9.984;2022-10-16T15:23:57;28.00;;;16.45;;
49614;SDS011;35517;45.272;9.984;2022-10-16T15:26:25;23.83;;;15.48;;
49614;SDS011;35517;45.272;9.984;2022-10-16T15:28:52;22.73;;;16.58;;
49614;SDS011;35517;45.272;9.984;2022-10-16T15:31:19;27.45;;;16.98;;
49614;SDS011;35517;45.272;9.984;2022-10-16T15:33:49;29.65;;;16.83;;
49614;SDS011;35517;45.272;9.984;2022-10-16T15:36:25;25.85;;;17.98;;
49614;SDS011;35517;45.272;9.984;2022-10-16T15:38:52;28.90;;;18.48;;
49614;SDS011;35517;45.272;9.984;2022-10-16T15:41:19;25.83;;;18.65;;
49614;SDS011;35517;45.272;9.984;2022-10-16T15:43:50;30.85;;;19.00;;
49614;SDS011;35517;45.272;9.984;2022-10-16T15:46:18;31.92;;;19.88;;
49614;SDS011;35517;45.272;9.984;2022-10-16T15:48:47;28.52;;;17.92;;
49614;SDS011;35517;45.272;9.984;2022-10-16T15:51:17;28.42;;;18.73;;
49614;SDS011;35517;45.272;9.984;2022-10-16T15:53:44;39.33;;;18.58;;
49614;SDS011;35517;45.272;9.984;2022-10-16T15:56:12;25.83;;;17.20;;
49614;SDS011;35517;45.272;9.984;2022-10-16T15:58:40;30.67;;;18.00;;
49614;SDS011;35517;45.272;9.984;2022-10-16T16:01:06;26.58;;;18.30;;
49614;SDS011;35517;45.272;9.984;2022-10-16T16:03:35;28.83;;;19.05;;
49614;SDS011;35517;45.272;9.984;2022-10-16T16:06:06;32.10;;;18.48;;
49614;SDS011;35517;45.272;9.984;2022-10-16T16:08:33;27.25;;;18.80;;
49614;SDS011;35517;45.272;9.984;2022-10-16T16:11:00;29.55;;;20.33;;
49614;SDS011;35517;45.272;9.984;2022-10-16T16:13:27;36.38;;;19.45;;
49614;SDS011;35517;45.272;9.984;2022-10-16T16:15:55;28.35;;;17.88;;
49614;SDS011;35517;45.272;9.984;2022-10-16T16:18:22;31.15;;;18.45;;
49614;SDS011;35517;45.272;9.984;2022-10-16T16:20:50;28.48;;;18.02;;
49614;SDS011;35517;45.272;9.984;2022-10-16T16:23:16;28.63;;;17.73;;
49614;SDS011;35517;45.272;9.984;2022-10-16T16:25:49;26.20;;;17.90;;